Time;durP1;ratioP1;P1;durP2;ratioP2;P2;SDS_P1;SDS_P2;PMS_P1;PMS_P2;Temp;Humidity;BMP_temperature;BMP_pressure;BME280_temperature;BME280_humidity;BME280_pressure;Samples;Min_cycle;Max_cycle;Signal;HPM_P1;HPM_P2
2021/04/30 00:00:23;;;;;;;17.50;15.80;;;11.70;98.40;;;;;;5033197;28;20483;-46
2021/04/30 00:02:49;;;;;;;17.33;15.80;;;11.40;98.20;;;;;;5032982;28;20436;-45
2021/04/30 00:05:16;;;;;;;17.60;15.90;;;11.80;98.40;;;;;;5033103;28;20475;-45
2021/04/30 00:07:42;;;;;;;17.70;15.90;;;11.60;98.40;;;;;;5033057;28;21011;-45
2021/04/30 00:10:11;;;;;;;17.40;14.60;;;11.30;98.30;;;;;;5033116;28;20431;-45
2021/04/30 00:12:37;;;;;;;13.97;12.60;;;11.30;98.30;;;;;;5033449;28;20475;-46
2021/04/30 00:15:04;;;;;;;13.90;12.53;;;11.50;98.20;;;;;;5032966;28;20462;-45
2021/04/30 00:17:31;;;;;;;13.43;11.90;;;11.20;98.10;;;;;;5015051;28;20860;-46
2021/04/30 00:19:57;;;;;;;13.57;12.37;;;11.60;98.40;;;;;;5032977;28;20461;-46
2021/04/30 00:22:23;;;;;;;13.30;11.90;;;11.50;98.30;;;;;;5032438;28;20541;-45
2021/04/30 00:24:49;;;;;;;14.23;12.80;;;11.30;98.20;;;;;;5032600;28;20463;-45
2021/04/30 00:27:16;;;;;;;13.37;11.97;;;11.20;98.10;;;;;;5032629;28;20459;-45
2021/04/30 00:29:43;;;;;;;12.07;10.97;;;11.60;98.20;;;;;;5032675;28;20438;-46
2021/04/30 00:32:09;;;;;;;13.73;10.90;;;11.20;97.90;;;;;;5032428;28;20546;-45
2021/04/30 00:34:35;;;;;;;13.50;12.20;;;11.40;97.80;;;;;;5032287;28;20939;-45
2021/04/30 00:37:01;;;;;;;13.80;12.33;;;11.60;97.80;;;;;;5032357;28;20479;-45
2021/04/30 00:39:28;;;;;;;13.40;12.00;;;11.60;97.90;;;;;;5014762;28;20486;-45
2021/04/30 00:41:54;;;;;;;12.77;11.50;;;11.40;97.80;;;;;;5032265;28;20463;-46
2021/04/30 00:44:21;;;;;;;11.90;10.80;;;11.00;97.70;;;;;;5031993;28;20432;-45
2021/04/30 00:46:47;;;;;;;13.20;11.90;;;11.00;97.60;;;;;;5032312;28;20865;-46
2021/04/30 00:49:13;;;;;;;14.30;12.97;;;11.40;98.00;;;;;;5014544;28;20487;-46
2021/04/30 00:51:40;;;;;;;14.50;12.93;;;11.80;98.20;;;;;;5032390;28;20990;-45
2021/04/30 00:54:06;;;;;;;13.10;11.90;;;11.30;97.90;;;;;;5031935;28;20530;-45
2021/04/30 00:56:34;;;;;;;14.70;13.30;;;11.10;97.80;;;;;;5032224;28;20511;-46
2021/04/30 00:59:01;;;;;;;12.90;11.70;;;11.40;97.90;;;;;;5032151;28;20432;-45
2021/04/30 01:01:28;;;;;;;14.47;12.80;;;11.30;97.90;;;;;;5032088;28;20451;-45
2021/04/30 01:03:55;;;;;;;14.60;13.13;;;11.90;98.20;;;;;;5031440;28;20442;-45
2021/04/30 01:06:21;;;;;;;13.93;12.53;;;11.40;97.90;;;;;;5032010;28;20438;-45
2021/04/30 01:08:48;;;;;;;12.27;11.17;;;11.40;98.00;;;;;;5032058;28;20519;-44
2021/04/30 01:11:14;;;;;;;13.87;12.57;;;11.90;98.20;;;;;;5032180;28;20460;-46
2021/04/30 01:13:41;;;;;;;13.43;12.23;;;11.10;97.80;;;;;;5032182;28;20467;-45
2021/04/30 01:16:07;;;;;;;14.17;12.70;;;11.80;98.20;;;;;;5032252;28;20701;-45
2021/04/30 01:18:41;;;;;;;14.30;12.87;;;11.20;97.90;;;;;;5032538;28;20469;-46
2021/04/30 01:21:08;;;;;;;15.57;13.97;;;11.40;98.10;;;;;;5032088;28;20459;-46
2021/04/30 01:23:45;;;;;;;14.10;12.70;;;11.30;98.10;;;;;;5032293;28;20469;-45
2021/04/30 01:26:11;;;;;;;14.47;13.17;;;11.40;98.30;;;;;;5032550;28;20431;-44
2021/04/30 01:28:37;;;;;;;15.10;13.33;;;11.70;98.50;;;;;;5031896;28;20430;-45
2021/04/30 01:31:03;;;;;;;14.20;13.00;;;11.40;98.50;;;;;;5032107;28;20889;-45
2021/04/30 01:33:30;;;;;;;14.93;12.80;;;11.40;98.50;;;;;;5031841;28;20459;-46
2021/04/30 01:35:56;;;;;;;14.80;12.80;;;11.50;98.40;;;;;;5032227;28;20479;-46
2021/04/30 01:38:23;;;;;;;14.57;13.03;;;11.10;98.60;;;;;;5032001;28;20548;-46
2021/04/30 01:40:50;;;;;;;12.00;10.80;;;10.80;98.50;;;;;;5031987;28;20472;-46
2021/04/30 01:43:17;;;;;;;13.93;12.63;;;11.00;98.70;;;;;;5031735;28;20438;-46
2021/04/30 01:45:51;;;;;;;11.80;10.70;;;11.00;98.70;;;;;;5031981;28;20432;-46
2021/04/30 01:48:19;;;;;;;13.00;11.80;;;11.00;99.00;;;;;;5031822;28;20446;-45
2021/04/30 01:50:45;;;;;;;14.00;12.57;;;11.30;99.30;;;;;;5031614;28;20489;-46
2021/04/30 01:53:13;;;;;;;13.13;11.70;;;10.80;99.10;;;;;;5031389;28;20511;-46
2021/04/30 01:55:39;;;;;;;13.27;11.97;;;11.40;99.40;;;;;;5031628;28;20446;-44
2021/04/30 01:58:06;;;;;;;12.77;11.17;;;10.90;98.90;;;;;;5032289;28;20429;-45
2021/04/30 02:00:33;;;;;;;14.90;13.30;;;11.00;99.10;;;;;;5032598;28;20459;-46
2021/04/30 02:03:00;;;;;;;13.07;11.77;;;10.80;98.90;;;;;;5033679;28;20466;-45
2021/04/30 02:05:28;;;;;;;14.10;12.77;;;10.90;99.00;;;;;;5033511;28;20506;-44
2021/04/30 02:07:55;;;;;;;13.33;11.93;;;10.80;98.90;;;;;;5031763;28;20460;-46
2021/04/30 02:10:23;;;;;;;13.17;11.87;;;10.70;99.20;;;;;;5031556;28;20470;-44
2021/04/30 02:12:51;;;;;;;13.40;12.10;;;11.20;99.60;;;;;;5031183;28;20434;-45
2021/04/30 02:15:20;;;;;;;13.50;12.10;;;11.00;99.80;;;;;;5032001;28;20467;-46
2021/04/30 02:17:46;;;;;;;13.50;12.13;;;10.90;99.70;;;;;;5035498;28;20479;-45
2021/04/30 02:20:14;;;;;;;13.97;12.67;;;10.70;99.60;;;;;;5035613;28;20473;-45
2021/04/30 02:22:41;;;;;;;15.03;13.63;;;11.20;99.90;;;;;;5035400;28;20438;-46
2021/04/30 02:25:11;;;;;;;13.60;12.40;;;10.30;99.60;;;;;;5035116;28;20427;-45
2021/04/30 02:27:37;;;;;;;13.80;11.90;;;10.90;99.80;;;;;;5034026;28;20467;-46
2021/04/30 02:30:05;;;;;;;13.50;12.30;;;10.90;99.90;;;;;;5034249;28;20423;-45
2021/04/30 02:32:33;;;;;;;13.87;11.80;;;10.90;99.90;;;;;;5034750;28;20534;-46
2021/04/30 02:35:00;;;;;;;13.87;12.50;;;10.70;99.90;;;;;;5035531;28;20471;-45
2021/04/30 02:37:26;;;;;;;14.40;13.03;;;10.80;99.90;;;;;;5035374;28;20821;-45
2021/04/30 02:39:52;;;;;;;15.07;13.57;;;10.70;99.90;;;;;;5035519;28;20467;-45
2021/04/30 02:42:19;;;;;;;14.17;12.87;;;10.10;99.90;;;;;;5035214;28;20509;-46
2021/04/30 02:44:46;;;;;;;14.67;13.17;;;10.60;99.90;;;;;;5035155;28;20431;-45
2021/04/30 02:47:14;;;;;;;13.90;12.50;;;10.30;99.90;;;;;;5035321;28;20430;-45
2021/04/30 02:49:44;;;;;;;14.33;13.03;;;10.50;99.90;;;;;;5034952;28;20456;-45
2021/04/30 02:52:14;;;;;;;15.33;13.63;;;11.20;99.90;;;;;;5034712;28;20472;-45
2021/04/30 02:54:40;;;;;;;14.93;13.53;;;11.00;99.90;;;;;;5016921;28;20440;-45
2021/04/30 02:57:07;;;;;;;16.47;14.60;;;10.20;99.90;;;;;;5034678;28;20506;-45
2021/04/30 02:59:34;;;;;;;14.73;13.27;;;11.20;99.90;;;;;;5034814;28;20436;-45
2021/04/30 03:02:01;;;;;;;16.17;14.50;;;10.70;99.90;;;;;;5035188;28;20452;-45
2021/04/30 03:04:28;;;;;;;17.03;12.93;;;9.80;99.90;;;;;;5035665;28;20510;-46
2021/04/30 03:06:55;;;;;;;15.40;14.00;;;10.40;99.90;;;;;;5035785;28;20499;-45
2021/04/30 03:09:21;;;;;;;18.67;15.43;;;10.70;99.90;;;;;;5034671;28;20454;-45
2021/04/30 03:11:47;;;;;;;16.33;14.70;;;10.70;99.90;;;;;;5034297;28;20533;-45
2021/04/30 03:14:14;;;;;;;18.80;15.60;;;10.20;99.90;;;;;;5034415;28;20432;-46
2021/04/30 03:16:40;;;;;;;16.40;14.90;;;10.30;99.90;;;;;;5034156;28;20480;-45
2021/04/30 03:19:06;;;;;;;16.77;15.07;;;10.40;99.90;;;;;;5034173;28;20439;-46
2021/04/30 03:21:32;;;;;;;17.47;15.57;;;10.30;99.90;;;;;;5034029;28;20459;-44
2021/04/30 03:23:59;;;;;;;18.43;16.73;;;10.40;99.90;;;;;;5033753;28;20435;-45
2021/04/30 03:26:26;;;;;;;19.17;17.33;;;10.30;99.90;;;;;;5033856;28;20535;-46
2021/04/30 03:28:52;;;;;;;20.80;18.77;;;9.80;99.90;;;;;;5034215;28;20920;-45
2021/04/30 03:31:18;;;;;;;20.40;18.43;;;10.50;99.90;;;;;;5033816;28;20502;-45
2021/04/30 03:33:45;;;;;;;21.67;19.37;;;10.20;99.90;;;;;;5033508;28;20530;-45
2021/04/30 03:36:12;;;;;;;19.87;17.87;;;10.30;99.90;;;;;;5015941;28;20525;-44
2021/04/30 03:38:38;;;;;;;18.67;16.77;;;10.40;99.90;;;;;;5033500;28;20427;-46
2021/04/30 03:41:05;;;;;;;17.07;15.00;;;10.30;99.90;;;;;;5033703;28;20478;-46
2021/04/30 03:43:31;;;;;;;17.30;15.60;;;10.20;99.90;;;;;;5033291;28;20924;-46
2021/04/30 03:45:59;;;;;;;19.30;17.33;;;10.70;99.90;;;;;;5033273;28;20978;-46
2021/04/30 03:48:27;;;;;;;20.57;18.53;;;10.10;99.90;;;;;;5032719;28;20435;-47
2021/04/30 03:50:54;;;;;;;21.37;19.27;;;10.00;99.90;;;;;;5032792;28;20809;-44
2021/04/30 03:53:21;;;;;;;22.13;19.93;;;10.10;99.90;;;;;;5032212;28;20430;-47
2021/04/30 03:55:47;;;;;;;19.67;17.33;;;10.20;99.90;;;;;;5014669;28;20456;-46
2021/04/30 03:58:14;;;;;;;22.17;19.93;;;10.00;99.90;;;;;;5032352;28;20480;-46
2021/04/30 04:00:40;;;;;;;18.37;16.67;;;10.30;99.90;;;;;;5032407;28;20513;-46
2021/04/30 04:03:07;;;;;;;17.37;15.57;;;10.60;99.90;;;;;;5032038;28;20431;-46
2021/04/30 04:05:33;;;;;;;16.63;14.90;;;10.20;99.90;;;;;;5032302;28;20527;-46
2021/04/30 04:07:59;;;;;;;14.47;13.17;;;10.50;99.90;;;;;;5014641;28;20972;-46
2021/04/30 04:10:25;;;;;;;15.90;14.30;;;10.30;99.90;;;;;;5032253;28;20487;-46
2021/04/30 04:12:51;;;;;;;25.20;15.57;;;10.50;99.90;;;;;;5031779;28;20455;-46
2021/04/30 04:15:19;;;;;;;18.03;16.13;;;10.70;99.90;;;;;;5032134;28;20835;-46
2021/04/30 04:17:45;;;;;;;17.37;15.77;;;10.20;99.90;;;;;;5032332;28;20507;-47
2021/04/30 04:20:12;;;;;;;16.73;15.03;;;9.80;99.90;;;;;;5014272;28;20497;-46
2021/04/30 04:22:39;;;;;;;18.03;16.33;;;10.20;99.90;;;;;;5031825;28;20435;-45
2021/04/30 04:25:06;;;;;;;15.13;13.63;;;10.00;99.90;;;;;;5032049;28;20439;-46
2021/04/30 04:27:33;;;;;;;16.30;14.73;;;10.20;99.90;;;;;;5031942;28;20436;-47
2021/04/30 04:29:59;;;;;;;18.83;17.00;;;10.20;99.90;;;;;;5032011;28;20434;-47
2021/04/30 04:32:26;;;;;;;20.33;18.33;;;10.20;99.90;;;;;;5032048;28;20904;-46
2021/04/30 04:34:53;;;;;;;20.10;18.00;;;10.70;99.90;;;;;;5032253;28;20440;-45
2021/04/30 04:37:19;;;;;;;21.20;19.00;;;10.20;99.90;;;;;;5014341;28;21019;-45
2021/04/30 04:39:45;;;;;;;19.07;17.20;;;10.10;99.90;;;;;;5031241;28;20436;-47
2021/04/30 04:42:12;;;;;;;21.67;19.47;;;10.70;99.90;;;;;;5032146;28;20862;-46
2021/04/30 04:44:38;;;;;;;22.47;20.13;;;10.00;99.90;;;;;;5031547;28;21006;-46
2021/04/30 04:47:04;;;;;;;24.37;21.47;;;10.00;99.90;;;;;;5031602;28;20489;-47
2021/04/30 04:49:31;;;;;;;24.50;21.93;;;9.80;99.90;;;;;;5031872;28;20424;-47
2021/04/30 04:51:58;;;;;;;22.47;20.37;;;10.30;99.90;;;;;;5031609;28;20451;-45
2021/04/30 04:54:24;;;;;;;22.97;20.63;;;10.50;99.90;;;;;;5032195;28;20427;-46
2021/04/30 04:56:51;;;;;;;23.50;21.20;;;10.40;99.90;;;;;;5032509;28;20482;-45
2021/04/30 04:59:17;;;;;;;25.57;22.67;;;10.30;99.90;;;;;;5032544;28;20515;-46
2021/04/30 05:01:43;;;;;;;22.70;20.53;;;9.90;99.90;;;;;;5033767;28;20448;-46
2021/04/30 05:04:09;;;;;;;22.80;20.37;;;10.20;99.90;;;;;;5032300;28;20440;-47
2021/04/30 05:06:36;;;;;;;24.50;21.87;;;10.30;99.90;;;;;;5032136;28;20933;-47
2021/04/30 05:09:03;;;;;;;18.83;16.83;;;10.20;99.90;;;;;;5031886;28;20428;-47
2021/04/30 05:11:30;;;;;;;21.00;18.80;;;10.20;99.90;;;;;;5031407;28;20491;-47
2021/04/30 05:13:56;;;;;;;22.57;20.33;;;10.30;99.90;;;;;;5031129;28;20444;-47
2021/04/30 05:16:22;;;;;;;21.40;19.20;;;10.40;99.90;;;;;;5031253;28;20511;-47
2021/04/30 05:18:48;;;;;;;22.50;18.73;;;10.20;99.90;;;;;;5013775;28;21018;-47
2021/04/30 05:21:15;;;;;;;18.77;16.97;;;10.30;99.90;;;;;;5031959;28;20479;-47
2021/04/30 05:23:43;;;;;;;18.63;16.83;;;10.20;99.90;;;;;;5031462;28;20439;-47
2021/04/30 05:26:09;;;;;;;17.90;16.00;;;10.60;99.90;;;;;;5031938;28;20805;-46
2021/04/30 05:28:36;;;;;;;17.27;15.67;;;10.80;99.90;;;;;;5031412;28;20458;-45
2021/04/30 05:31:03;;;;;;;17.20;13.77;;;10.20;99.90;;;;;;5031188;28;20474;-47
2021/04/30 05:33:29;;;;;;;15.67;14.23;;;10.40;99.90;;;;;;5030713;28;20462;-45
2021/04/30 05:35:55;;;;;;;16.13;14.63;;;10.20;99.90;;;;;;5030818;28;20427;-46
2021/04/30 05:38:22;;;;;;;14.63;12.73;;;10.40;99.90;;;;;;5012987;28;20486;-46
2021/04/30 05:40:49;;;;;;;17.27;14.63;;;10.20;99.90;;;;;;5030643;28;20562;-46
2021/04/30 05:43:16;;;;;;;16.83;15.23;;;10.30;99.90;;;;;;5012979;28;20455;-47
2021/04/30 05:45:44;;;;;;;14.27;12.87;;;9.70;99.90;;;;;;5031972;28;20428;-47
2021/04/30 05:48:10;;;;;;;15.33;13.40;;;9.70;99.90;;;;;;5031758;28;20474;-47
2021/04/30 05:50:37;;;;;;;15.30;13.80;;;10.10;99.90;;;;;;5017708;28;20987;-47
2021/04/30 05:53:04;;;;;;;16.03;14.53;;;10.70;99.90;;;;;;5035302;28;20436;-47
2021/04/30 05:55:30;;;;;;;15.53;13.83;;;10.70;99.90;;;;;;5034935;28;20469;-47
2021/04/30 05:57:58;;;;;;;13.97;12.47;;;10.10;99.90;;;;;;5017435;28;20475;-47
2021/04/30 06:00:24;;;;;;;14.47;12.97;;;9.90;99.90;;;;;;5035468;28;20447;-46
2021/04/30 06:02:50;;;;;;;14.63;13.10;;;10.40;99.90;;;;;;5034606;28;20431;-47
2021/04/30 06:05:16;;;;;;;15.73;13.17;;;10.20;99.90;;;;;;5034484;28;20849;-46
2021/04/30 06:07:45;;;;;;;13.77;12.47;;;10.20;99.90;;;;;;5016418;28;20531;-46
2021/04/30 06:10:12;;;;;;;14.90;13.40;;;10.40;99.90;;;;;;5034647;28;20927;-46
2021/04/30 06:12:38;;;;;;;15.40;11.97;;;10.50;99.90;;;;;;5034237;28;20817;-47
2021/04/30 06:15:06;;;;;;;14.10;12.13;;;10.30;99.90;;;;;;5035401;28;20505;-47
2021/04/30 06:17:32;;;;;;;13.23;11.93;;;10.50;99.90;;;;;;5035091;28;20478;-47
2021/04/30 06:19:59;;;;;;;14.80;13.23;;;9.90;99.90;;;;;;5034750;28;20759;-46
2021/04/30 06:22:25;;;;;;;13.03;11.43;;;10.00;99.90;;;;;;5034165;28;20534;-46
2021/04/30 06:24:52;;;;;;;13.50;12.10;;;10.40;99.90;;;;;;5034510;28;20432;-46
2021/04/30 06:27:18;;;;;;;20.67;11.83;;;10.40;99.90;;;;;;5034533;28;20497;-46
2021/04/30 06:29:44;;;;;;;15.50;12.00;;;10.70;99.90;;;;;;5035147;28;20451;-46
2021/04/30 06:32:11;;;;;;;19.93;11.10;;;10.40;99.90;;;;;;5034469;28;20451;-45
2021/04/30 06:34:38;;;;;;;17.90;10.50;;;10.40;99.90;;;;;;5034206;28;20779;-48
2021/04/30 06:37:04;;;;;;;11.80;10.60;;;10.80;99.90;;;;;;5034124;28;20475;-47
2021/04/30 06:39:31;;;;;;;10.60;8.60;;;10.00;99.90;;;;;;5034401;28;20955;-46
2021/04/30 06:42:01;;;;;;;6.67;5.90;;;11.00;99.90;;;;;;5016340;28;20514;-47
2021/04/30 06:44:28;;;;;;;8.23;7.37;;;10.70;99.90;;;;;;5033932;28;20940;-47
2021/04/30 06:46:55;;;;;;;8.80;7.27;;;10.40;99.90;;;;;;5017397;28;20972;-47
2021/04/30 06:49:22;;;;;;;13.73;9.07;;;10.30;99.90;;;;;;5034855;28;20434;-46
2021/04/30 06:51:49;;;;;;;12.33;11.07;;;10.80;99.90;;;;;;5036105;28;20447;-46
2021/04/30 06:54:16;;;;;;;11.17;7.43;;;10.40;99.90;;;;;;5018191;28;20444;-46
2021/04/30 06:56:42;;;;;;;15.40;9.97;;;10.40;99.90;;;;;;5034776;28;20519;-47
2021/04/30 06:59:09;;;;;;;8.53;7.00;;;10.40;99.90;;;;;;5033669;28;20439;-47
2021/04/30 07:01:35;;;;;;;5.80;5.10;;;10.80;99.90;;;;;;5032863;28;20827;-47
2021/04/30 07:04:02;;;;;;;8.47;6.00;;;9.90;99.90;;;;;;5015377;28;20431;-46
2021/04/30 07:06:29;;;;;;;9.57;6.63;;;10.30;99.90;;;;;;5033302;28;20436;-46
2021/04/30 07:08:55;;;;;;;8.57;7.20;;;10.30;99.90;;;;;;5033179;28;20432;-46
2021/04/30 07:11:22;;;;;;;8.53;6.80;;;10.00;99.90;;;;;;5032484;28;20456;-46
2021/04/30 07:13:48;;;;;;;7.27;5.83;;;10.40;99.90;;;;;;5032814;28;20434;-46
2021/04/30 07:16:15;;;;;;;6.43;5.83;;;10.30;99.90;;;;;;5033091;28;20432;-47
2021/04/30 07:18:41;;;;;;;5.97;5.37;;;10.60;99.90;;;;;;5032943;28;20912;-46
2021/04/30 07:21:07;;;;;;;7.40;6.03;;;10.20;99.90;;;;;;5032521;28;20455;-47
2021/04/30 07:23:35;;;;;;;8.23;6.73;;;10.50;99.90;;;;;;5031899;28;20951;-46
2021/04/30 07:26:02;;;;;;;8.77;6.40;;;10.20;99.90;;;;;;5014708;28;20455;-47
2021/04/30 07:28:29;;;;;;;7.50;5.87;;;10.10;99.90;;;;;;5032682;28;20924;-47
2021/04/30 07:30:55;;;;;;;8.93;6.10;;;10.60;99.90;;;;;;5033353;28;20974;-46
2021/04/30 07:33:22;;;;;;;9.83;6.60;;;10.50;99.90;;;;;;5033090;28;20916;-45
2021/04/30 07:35:49;;;;;;;8.53;5.67;;;10.40;99.90;;;;;;5033380;28;20823;-46
2021/04/30 07:38:15;;;;;;;6.57;5.97;;;10.40;99.90;;;;;;5033411;28;20939;-47
2021/04/30 07:40:44;;;;;;;5.77;5.27;;;11.10;99.90;;;;;;5033048;28;20571;-46
2021/04/30 07:43:11;;;;;;;9.10;6.70;;;10.60;99.90;;;;;;5032698;28;20435;-46
2021/04/30 07:45:39;;;;;;;7.73;6.60;;;10.60;99.90;;;;;;5032814;28;20454;-46
2021/04/30 07:48:07;;;;;;;8.90;6.53;;;10.50;99.90;;;;;;5032847;28;20442;-46
2021/04/30 07:50:34;;;;;;;10.60;6.90;;;10.60;99.90;;;;;;5032538;28;20456;-46
2021/04/30 07:53:00;;;;;;;7.53;6.37;;;10.60;99.90;;;;;;5032448;28;20447;-45
2021/04/30 07:55:27;;;;;;;8.73;6.80;;;10.40;99.90;;;;;;5032611;28;20808;-46
2021/04/30 07:57:54;;;;;;;10.87;8.17;;;10.40;99.90;;;;;;5032522;28;20486;-47
2021/04/30 08:00:21;;;;;;;8.33;5.97;;;10.30;99.90;;;;;;5032705;28;20463;-46
2021/04/30 08:02:48;;;;;;;10.60;6.77;;;10.40;99.90;;;;;;5032357;28;20431;-46
2021/04/30 08:05:15;;;;;;;11.30;6.57;;;10.30;99.90;;;;;;5032669;28;20585;-46
2021/04/30 08:07:42;;;;;;;8.70;6.93;;;10.40;99.90;;;;;;5032789;28;20473;-46
2021/04/30 08:10:11;;;;;;;9.33;7.20;;;10.40;99.90;;;;;;5032521;28;20459;-46
2021/04/30 08:12:38;;;;;;;8.37;6.93;;;10.20;99.90;;;;;;5031420;28;20435;-46
2021/04/30 08:15:07;;;;;;;7.90;6.70;;;10.50;99.90;;;;;;5031968;28;20439;-46
2021/04/30 08:17:34;;;;;;;7.70;6.37;;;10.20;99.90;;;;;;5032074;28;20525;-46
2021/04/30 08:20:03;;;;;;;7.10;6.40;;;10.20;99.90;;;;;;5032070;28;20526;-46
2021/04/30 08:22:30;;;;;;;9.77;5.60;;;10.60;99.90;;;;;;5031528;28;20457;-46
2021/04/30 08:24:57;;;;;;;7.70;6.50;;;10.30;99.90;;;;;;5031862;28;20464;-46
2021/04/30 08:27:24;;;;;;;7.73;6.93;;;10.40;99.90;;;;;;5032197;28;20914;-46
2021/04/30 08:29:51;;;;;;;8.47;7.07;;;10.20;99.90;;;;;;5032088;28;20451;-47
2021/04/30 08:32:19;;;;;;;6.70;5.13;;;10.40;99.90;;;;;;5031169;28;20475;-46
2021/04/30 08:34:45;;;;;;;7.83;5.33;;;10.00;99.90;;;;;;5031847;28;20440;-46
2021/04/30 08:37:12;;;;;;;6.37;5.40;;;9.80;99.90;;;;;;5031884;28;20494;-46
2021/04/30 08:39:39;;;;;;;6.70;5.80;;;10.10;99.90;;;;;;5031946;28;20447;-46
2021/04/30 08:42:06;;;;;;;8.43;5.60;;;9.90;99.90;;;;;;5031713;28;20471;-46
2021/04/30 08:44:35;;;;;;;13.13;6.20;;;9.40;99.90;;;;;;5031668;28;20432;-46
2021/04/30 08:47:01;;;;;;;6.67;4.30;;;9.40;99.90;;;;;;5031650;28;20424;-46
2021/04/30 08:49:29;;;;;;;6.30;4.47;;;9.80;99.90;;;;;;5031397;28;20435;-46
2021/04/30 08:51:55;;;;;;;7.57;4.50;;;9.50;99.90;;;;;;5031645;28;20500;-46
2021/04/30 08:54:22;;;;;;;10.07;5.17;;;10.10;99.90;;;;;;5031311;28;20504;-46
2021/04/30 08:56:50;;;;;;;6.50;4.97;;;9.90;99.90;;;;;;5014159;28;20475;-46
2021/04/30 08:59:20;;;;;;;6.70;4.97;;;9.90;99.90;;;;;;5032277;28;20454;-45
2021/04/30 09:01:47;;;;;;;6.30;4.40;;;10.20;99.90;;;;;;5032707;28;20522;-46
2021/04/30 09:04:14;;;;;;;7.80;4.40;;;10.00;99.90;;;;;;5031786;28;20519;-46
2021/04/30 09:06:44;;;;;;;7.10;5.57;;;10.60;99.90;;;;;;5032133;28;20485;-46
2021/04/30 09:09:12;;;;;;;6.63;4.33;;;10.70;99.90;;;;;;5031873;28;20493;-46
2021/04/30 09:11:41;;;;;;;6.83;5.80;;;10.20;99.90;;;;;;5032220;28;20454;-47
2021/04/30 09:14:26;;;;;;;7.53;5.40;;;10.20;99.90;;;;;;5032222;28;20432;-47
2021/04/30 09:17:04;;;;;;;5.30;4.80;;;10.30;99.90;;;;;;5031867;28;20480;-47
2021/04/30 09:19:32;;;;;;;5.40;4.90;;;10.60;99.90;;;;;;5031782;28;20542;-47
2021/04/30 09:22:02;;;;;;;9.30;5.43;;;10.80;99.90;;;;;;5032042;28;20451;-45
2021/04/30 09:24:28;;;;;;;9.20;5.73;;;11.20;99.90;;;;;;5030231;28;20436;-46
2021/04/30 09:26:57;;;;;;;5.13;4.50;;;10.70;99.80;;;;;;5031325;28;20431;-46
2021/04/30 09:29:24;;;;;;;6.93;4.67;;;11.20;99.80;;;;;;5031187;28;20454;-45
2021/04/30 09:31:51;;;;;;;8.50;5.40;;;10.80;99.20;;;;;;5031129;28;20466;-44
2021/04/30 09:34:24;;;;;;;5.07;4.57;;;11.50;99.10;;;;;;5014890;28;20812;-46
2021/04/30 09:37:13;;;;;;;10.00;4.33;;;11.30;98.50;;;;;;5032834;28;20956;-45
2021/04/30 09:39:54;;;;;;;5.03;4.40;;;11.70;98.00;;;;;;5032535;28;20538;-47
2021/04/30 09:42:23;;;;;;;9.80;8.00;;;11.90;97.60;;;;;;5032591;28;20506;-46
2021/04/30 09:44:51;;;;;;;6.30;4.17;;;12.00;97.20;;;;;;5030976;28;21064;-46
2021/04/30 09:47:21;;;;;;;4.53;4.13;;;12.00;96.70;;;;;;5030898;28;20534;-46
2021/04/30 09:49:49;;;;;;;13.47;4.30;;;11.90;96.10;;;;;;5030982;28;20442;-47
2021/04/30 09:52:17;;;;;;;5.03;4.33;;;11.90;95.90;;;;;;5030689;28;20452;-47
2021/04/30 09:54:45;;;;;;;5.33;4.50;;;11.90;95.90;;;;;;5030539;28;20452;-46
2021/04/30 09:57:15;;;;;;;4.77;4.17;;;11.80;95.40;;;;;;5030650;28;20564;-46
2021/04/30 09:59:43;;;;;;;7.20;4.87;;;11.70;95.30;;;;;;5031303;28;20454;-45
2021/04/30 10:02:16;;;;;;;5.80;4.83;;;11.50;95.60;;;;;;5012861;28;20849;-46
2021/04/30 10:04:45;;;;;;;6.50;5.43;;;11.30;95.60;;;;;;5030723;28;20424;-45
2021/04/30 10:07:13;;;;;;;7.33;5.23;;;11.80;95.90;;;;;;5031060;28;20928;-46
2021/04/30 10:09:42;;;;;;;10.30;4.47;;;11.90;96.00;;;;;;5030859;28;20436;-45
2021/04/30 10:12:24;;;;;;;11.83;4.70;;;11.90;95.70;;;;;;5030588;28;20462;-46
2021/04/30 10:14:51;;;;;;;6.70;4.90;;;11.60;95.40;;;;;;5031423;28;20435;-46
2021/04/30 10:17:18;;;;;;;6.47;5.10;;;11.80;95.00;;;;;;5031066;28;20515;-46
2021/04/30 10:19:46;;;;;;;5.23;4.60;;;11.80;95.00;;;;;;5031103;28;20448;-46
2021/04/30 10:22:16;;;;;;;4.53;4.13;;;12.10;94.90;;;;;;5030793;28;20469;-46
2021/04/30 10:24:47;;;;;;;5.63;5.03;;;12.40;94.80;;;;;;5012983;28;20538;-46
2021/04/30 10:27:16;;;;;;;9.97;5.07;;;11.90;94.30;;;;;;5013475;28;20548;-45
2021/04/30 10:29:49;;;;;;;6.70;4.60;;;12.50;94.80;;;;;;5013754;28;20451;-45
2021/04/30 10:32:18;;;;;;;6.20;4.60;;;12.60;94.40;;;;;;5030828;28;20566;-46
2021/04/30 10:34:49;;;;;;;10.67;5.33;;;12.80;93.90;;;;;;5031251;28;20438;-47
2021/04/30 10:37:23;;;;;;;6.33;5.17;;;12.90;93.60;;;;;;5033463;28;20527;-47
2021/04/30 10:39:58;;;;;;;4.83;4.00;;;12.90;93.00;;;;;;5036001;28;20433;-46
2021/04/30 10:42:29;;;;;;;5.50;4.13;;;13.30;92.60;;;;;;5055406;22;20497;-52
2021/04/30 10:45:00;;;;;;;5.10;4.60;;;12.80;91.90;;;;;;5032147;28;20431;-50
2021/04/30 10:47:27;;;;;;;5.17;4.67;;;12.70;92.00;;;;;;5014287;28;20882;-50
2021/04/30 10:50:17;;;;;;;5.40;4.57;;;12.90;92.20;;;;;;5031613;28;20487;-50
2021/04/30 10:52:45;;;;;;;4.93;4.53;;;12.50;91.80;;;;;;5012046;28;20471;-50
2021/04/30 10:55:16;;;;;;;7.10;4.77;;;12.40;91.90;;;;;;4994158;28;20930;-51
2021/04/30 10:57:59;;;;;;;5.27;4.50;;;12.30;92.30;;;;;;4993853;28;20473;-53
2021/04/30 11:00:37;;;;;;;5.47;4.43;;;12.40;92.40;;;;;;5012101;28;20423;-50
2021/04/30 11:03:15;;;;;;;5.40;4.40;;;12.50;92.60;;;;;;5011770;28;20446;-50
2021/04/30 11:05:58;;;;;;;5.40;4.10;;;12.40;92.40;;;;;;4994337;28;20546;-50
2021/04/30 11:08:50;;;;;;;4.53;4.10;;;12.30;92.20;;;;;;5011786;28;20513;-49
2021/04/30 11:11:31;;;;;;;5.17;3.80;;;12.50;92.40;;;;;;5011449;28;20785;-51
2021/04/30 11:14:30;;;;;;;3.87;3.40;;;12.20;92.20;;;;;;5011705;28;20533;-50
2021/04/30 11:16:57;;;;;;;4.00;3.70;;;12.70;91.80;;;;;;4994002;28;20470;-51
2021/04/30 11:19:25;;;;;;;4.27;3.80;;;12.30;91.90;;;;;;5012098;28;20436;-51
2021/04/30 11:21:53;;;;;;;4.83;4.33;;;12.70;91.90;;;;;;5011676;28;20462;-50
2021/04/30 11:24:41;;;;;;;5.30;4.20;;;12.80;92.20;;;;;;5011057;28;20913;-50
2021/04/30 11:27:27;;;;;;;6.03;4.07;;;12.20;91.90;;;;;;5010996;28;20449;-51
2021/04/30 11:30:18;;;;;;;5.83;5.10;;;12.20;92.60;;;;;;4993818;28;20464;-52
2021/04/30 11:32:50;;;;;;;5.47;4.90;;;12.60;93.40;;;;;;5011170;28;20454;-50
2021/04/30 11:35:17;;;;;;;7.00;5.00;;;11.70;93.30;;;;;;4993760;28;20461;-54
2021/04/30 11:37:45;;;;;;;5.53;4.93;;;12.30;93.60;;;;;;5011596;28;20491;-49
2021/04/30 11:40:13;;;;;;;6.93;5.20;;;12.00;93.50;;;;;;4993602;28;20451;-51
2021/04/30 11:42:40;;;;;;;12.03;5.60;;;12.20;93.90;;;;;;5010551;28;20505;-50
2021/04/30 11:45:09;;;;;;;7.93;5.10;;;12.10;94.10;;;;;;5011005;28;20809;-52
2021/04/30 11:47:38;;;;;;;9.83;6.17;;;12.00;94.20;;;;;;5011095;28;20491;-53
2021/04/30 11:50:07;;;;;;;8.63;5.80;;;12.20;94.40;;;;;;5010815;28;20441;-50
2021/04/30 11:52:37;;;;;;;8.77;7.00;;;12.30;94.60;;;;;;5010373;28;20906;-50
2021/04/30 11:55:06;;;;;;;6.70;6.10;;;12.30;94.30;;;;;;5011595;28;20445;-51
2021/04/30 11:57:33;;;;;;;7.93;5.93;;;12.30;94.30;;;;;;5010806;28;20472;-51
2021/04/30 12:00:00;;;;;;;7.20;6.20;;;12.20;94.50;;;;;;4993024;28;20448;-51
2021/04/30 12:02:29;;;;;;;7.20;6.50;;;11.70;94.60;;;;;;5010031;28;20464;-51
2021/04/30 12:04:56;;;;;;;7.47;6.77;;;11.90;95.00;;;;;;5010571;28;20962;-52
2021/04/30 12:07:25;;;;;;;8.07;6.33;;;12.10;95.20;;;;;;5010764;28;20435;-51
2021/04/30 12:09:52;;;;;;;7.87;7.07;;;11.70;95.40;;;;;;5010872;28;20564;-51
2021/04/30 12:12:21;;;;;;;13.00;7.37;;;11.70;95.40;;;;;;5010855;28;20460;-50
2021/04/30 12:14:51;;;;;;;8.53;7.03;;;11.70;96.00;;;;;;5011146;28;20523;-51
2021/04/30 12:17:27;;;;;;;8.17;7.10;;;11.70;96.10;;;;;;5010041;28;20472;-51
2021/04/30 12:19:55;;;;;;;7.67;6.67;;;11.60;96.20;;;;;;5010622;28;20917;-51
2021/04/30 12:22:21;;;;;;;8.73;7.83;;;11.60;96.30;;;;;;5010440;28;20927;-50
2021/04/30 12:24:47;;;;;;;9.13;7.70;;;11.70;96.30;;;;;;4992907;28;20941;-50
2021/04/30 12:27:25;;;;;;;11.50;8.00;;;11.50;96.60;;;;;;5010896;28;20424;-52
2021/04/30 12:29:51;;;;;;;9.13;8.23;;;12.00;96.90;;;;;;5010932;28;20769;-51
2021/04/30 12:32:27;;;;;;;7.23;6.60;;;11.40;96.30;;;;;;5010352;28;20464;-51
2021/04/30 12:34:55;;;;;;;10.50;7.27;;;11.70;96.30;;;;;;5010367;28;20450;-49
2021/04/30 12:37:22;;;;;;;8.30;7.43;;;11.80;96.40;;;;;;5009983;28;20501;-50
2021/04/30 12:39:49;;;;;;;7.33;6.63;;;11.70;95.70;;;;;;5010155;28;20475;-49